sensor_id;sensor_type;location;lat;lon;timestamp;P1;durP1;ratioP1;P2;durP2;ratioP2
79139;SDS011;68546;59.142;37.948;2023-03-19T00:00:14;65.43;;;36.65;;
79139;SDS011;68546;59.142;37.948;2023-03-19T00:02:40;65.32;;;36.75;;
79139;SDS011;68546;59.142;37.948;2023-03-19T00:05:10;69.10;;;37.60;;
79139;SDS011;68546;59.142;37.948;2023-03-19T00:07:36;70.70;;;37.67;;
79139;SDS011;68546;59.142;37.948;2023-03-19T00:10:03;67.53;;;37.25;;
79139;SDS011;68546;59.142;37.948;2023-03-19T00:12:29;69.00;;;37.67;;
79139;SDS011;68546;59.142;37.948;2023-03-19T00:14:56;68.38;;;37.65;;
79139;SDS011;68546;59.142;37.948;2023-03-19T00:17:22;68.85;;;37.75;;
79139;SDS011;68546;59.142;37.948;2023-03-19T00:19:48;71.23;;;38.63;;
79139;SDS011;68546;59.142;37.948;2023-03-19T00:22:15;70.35;;;38.15;;
79139;SDS011;68546;59.142;37.948;2023-03-19T00:24:41;70.63;;;38.45;;
79139;SDS011;68546;59.142;37.948;2023-03-19T00:27:08;72.40;;;38.45;;
79139;SDS011;68546;59.142;37.948;2023-03-19T00:29:34;73.15;;;38.75;;
79139;SDS011;68546;59.142;37.948;2023-03-19T00:32:00;73.95;;;39.40;;
79139;SDS011;68546;59.142;37.948;2023-03-19T00:34:28;73.75;;;38.80;;
79139;SDS011;68546;59.142;37.948;2023-03-19T00:36:54;75.30;;;39.50;;
79139;SDS011;68546;59.142;37.948;2023-03-19T00:39:21;76.03;;;39.47;;
79139;SDS011;68546;59.142;37.948;2023-03-19T00:41:47;77.43;;;40.05;;
79139;SDS011;68546;59.142;37.948;2023-03-19T00:44:15;79.80;;;41.00;;
79139;SDS011;68546;59.142;37.948;2023-03-19T00:46:44;83.05;;;40.63;;
79139;SDS011;68546;59.142;37.948;2023-03-19T00:49:11;79.88;;;40.60;;
79139;SDS011;68546;59.142;37.948;2023-03-19T00:51:37;81.95;;;41.25;;
79139;SDS011;68546;59.142;37.948;2023-03-19T00:54:09;84.45;;;41.65;;
79139;SDS011;68546;59.142;37.948;2023-03-19T00:56:36;83.35;;;41.45;;
79139;SDS011;68546;59.142;37.948;2023-03-19T00:59:03;82.20;;;41.17;;
79139;SDS011;68546;59.142;37.948;2023-03-19T01:01:29;83.80;;;41.67;;
79139;SDS011;68546;59.142;37.948;2023-03-19T01:03:56;84.07;;;41.83;;
79139;SDS011;68546;59.142;37.948;2023-03-19T01:06:24;83.32;;;41.45;;
79139;SDS011;68546;59.142;37.948;2023-03-19T01:08:51;85.70;;;42.30;;
79139;SDS011;68546;59.142;37.948;2023-03-19T01:11:18;83.95;;;41.90;;
79139;SDS011;68546;59.142;37.948;2023-03-19T01:13:45;83.13;;;41.42;;
79139;SDS011;68546;59.142;37.948;2023-03-19T01:16:14;83.93;;;41.92;;
79139;SDS011;68546;59.142;37.948;2023-03-19T01:18:40;85.50;;;41.83;;
79139;SDS011;68546;59.142;37.948;2023-03-19T01:21:07;84.13;;;42.28;;
79139;SDS011;68546;59.142;37.948;2023-03-19T01:23:38;84.40;;;41.85;;
79139;SDS011;68546;59.142;37.948;2023-03-19T01:26:04;85.10;;;41.83;;
79139;SDS011;68546;59.142;37.948;2023-03-19T01:28:32;85.55;;;41.88;;
79139;SDS011;68546;59.142;37.948;2023-03-19T01:30:59;84.88;;;41.70;;
79139;SDS011;68546;59.142;37.948;2023-03-19T01:33:54;92.20;;;43.53;;
79139;SDS011;68546;59.142;37.948;2023-03-19T01:36:30;89.82;;;43.10;;
79139;SDS011;68546;59.142;37.948;2023-03-19T01:39:00;89.35;;;43.28;;
79139;SDS011;68546;59.142;37.948;2023-03-19T01:41:27;86.95;;;42.22;;
79139;SDS011;68546;59.142;37.948;2023-03-19T01:43:57;90.53;;;43.38;;
79139;SDS011;68546;59.142;37.948;2023-03-19T01:46:47;91.15;;;43.40;;
79139;SDS011;68546;59.142;37.948;2023-03-19T01:49:35;93.35;;;43.85;;
79139;SDS011;68546;59.142;37.948;2023-03-19T01:52:18;95.87;;;44.27;;
79139;SDS011;68546;59.142;37.948;2023-03-19T01:55:05;97.82;;;45.20;;
79139;SDS011;68546;59.142;37.948;2023-03-19T01:58:05;101.40;;;45.53;;
79139;SDS011;68546;59.142;37.948;2023-03-19T02:00:52;101.30;;;45.70;;
79139;SDS011;68546;59.142;37.948;2023-03-19T02:03:21;101.25;;;45.38;;
79139;SDS011;68546;59.142;37.948;2023-03-19T02:06:11;104.28;;;46.03;;
79139;SDS011;68546;59.142;37.948;2023-03-19T02:08:39;100.43;;;45.25;;
79139;SDS011;68546;59.142;37.948;2023-03-19T02:11:07;102.60;;;45.70;;
79139;SDS011;68546;59.142;37.948;2023-03-19T02:13:34;102.15;;;45.97;;
79139;SDS011;68546;59.142;37.948;2023-03-19T02:16:01;99.93;;;45.35;;
79139;SDS011;68546;59.142;37.948;2023-03-19T02:18:29;101.90;;;45.77;;
79139;SDS011;68546;59.142;37.948;2023-03-19T02:21:16;102.13;;;45.83;;
79139;SDS011;68546;59.142;37.948;2023-03-19T02:23:57;107.20;;;47.15;;
79139;SDS011;68546;59.142;37.948;2023-03-19T02:26:45;113.53;;;48.73;;
79139;SDS011;68546;59.142;37.948;2023-03-19T02:29:16;109.38;;;47.40;;
79139;SDS011;68546;59.142;37.948;2023-03-19T02:31:44;109.55;;;47.97;;
79139;SDS011;68546;59.142;37.948;2023-03-19T02:36:47;113.60;;;48.22;;
79139;SDS011;68546;59.142;37.948;2023-03-19T02:39:26;113.25;;;48.50;;
79139;SDS011;68546;59.142;37.948;2023-03-19T02:42:06;113.93;;;48.63;;
79139;SDS011;68546;59.142;37.948;2023-03-19T02:44:34;114.53;;;48.73;;
79139;SDS011;68546;59.142;37.948;2023-03-19T02:47:02;113.13;;;48.25;;
79139;SDS011;68546;59.142;37.948;2023-03-19T02:49:30;113.22;;;48.35;;
79139;SDS011;68546;59.142;37.948;2023-03-19T02:51:56;114.83;;;48.93;;
79139;SDS011;68546;59.142;37.948;2023-03-19T02:54:22;113.38;;;48.28;;
79139;SDS011;68546;59.142;37.948;2023-03-19T02:56:49;111.93;;;48.00;;
79139;SDS011;68546;59.142;37.948;2023-03-19T02:59:17;112.57;;;48.22;;
79139;SDS011;68546;59.142;37.948;2023-03-19T03:01:43;112.07;;;48.15;;
79139;SDS011;68546;59.142;37.948;2023-03-19T03:04:10;111.63;;;48.28;;
79139;SDS011;68546;59.142;37.948;2023-03-19T03:06:37;110.97;;;48.25;;
79139;SDS011;68546;59.142;37.948;2023-03-19T03:09:04;111.40;;;47.97;;
79139;SDS011;68546;59.142;37.948;2023-03-19T03:11:31;108.00;;;47.00;;
79139;SDS011;68546;59.142;37.948;2023-03-19T03:13:57;107.70;;;46.97;;
79139;SDS011;68546;59.142;37.948;2023-03-19T03:16:24;109.87;;;47.60;;
79139;SDS011;68546;59.142;37.948;2023-03-19T03:18:51;106.32;;;46.65;;
79139;SDS011;68546;59.142;37.948;2023-03-19T03:21:18;105.03;;;46.83;;
79139;SDS011;68546;59.142;37.948;2023-03-19T03:23:46;104.35;;;46.33;;
79139;SDS011;68546;59.142;37.948;2023-03-19T03:26:13;104.88;;;46.75;;
79139;SDS011;68546;59.142;37.948;2023-03-19T03:28:40;100.15;;;45.55;;
79139;SDS011;68546;59.142;37.948;2023-03-19T03:31:06;100.10;;;45.72;;
79139;SDS011;68546;59.142;37.948;2023-03-19T03:33:33;101.97;;;45.70;;
79139;SDS011;68546;59.142;37.948;2023-03-19T03:36:01;101.25;;;45.63;;
79139;SDS011;68546;59.142;37.948;2023-03-19T03:38:27;101.13;;;45.58;;
79139;SDS011;68546;59.142;37.948;2023-03-19T03:40:57;102.03;;;45.87;;
79139;SDS011;68546;59.142;37.948;2023-03-19T03:43:25;103.38;;;45.90;;
79139;SDS011;68546;59.142;37.948;2023-03-19T03:45:52;99.65;;;45.60;;
79139;SDS011;68546;59.142;37.948;2023-03-19T03:48:19;98.07;;;45.05;;
79139;SDS011;68546;59.142;37.948;2023-03-19T03:50:46;100.57;;;45.55;;
79139;SDS011;68546;59.142;37.948;2023-03-19T03:53:17;100.25;;;45.78;;
79139;SDS011;68546;59.142;37.948;2023-03-19T03:55:46;97.63;;;45.10;;
79139;SDS011;68546;59.142;37.948;2023-03-19T03:58:12;98.50;;;44.93;;
79139;SDS011;68546;59.142;37.948;2023-03-19T04:00:39;96.65;;;44.67;;
79139;SDS011;68546;59.142;37.948;2023-03-19T04:03:05;95.50;;;44.58;;
79139;SDS011;68546;59.142;37.948;2023-03-19T04:05:32;95.73;;;44.50;;
79139;SDS011;68546;59.142;37.948;2023-03-19T04:07:59;93.50;;;44.08;;
79139;SDS011;68546;59.142;37.948;2023-03-19T04:10:25;92.53;;;43.80;;
79139;SDS011;68546;59.142;37.948;2023-03-19T04:12:52;92.65;;;43.85;;
79139;SDS011;68546;59.142;37.948;2023-03-19T04:15:18;94.32;;;44.15;;
79139;SDS011;68546;59.142;37.948;2023-03-19T04:17:47;93.10;;;44.17;;
79139;SDS011;68546;59.142;37.948;2023-03-19T04:20:14;92.63;;;44.08;;
79139;SDS011;68546;59.142;37.948;2023-03-19T04:22:44;93.40;;;44.30;;
79139;SDS011;68546;59.142;37.948;2023-03-19T04:25:10;92.43;;;43.75;;
79139;SDS011;68546;59.142;37.948;2023-03-19T04:27:38;91.45;;;43.63;;
79139;SDS011;68546;59.142;37.948;2023-03-19T04:30:06;94.67;;;44.40;;
79139;SDS011;68546;59.142;37.948;2023-03-19T04:32:35;91.35;;;43.42;;
79139;SDS011;68546;59.142;37.948;2023-03-19T04:35:02;91.82;;;43.30;;
79139;SDS011;68546;59.142;37.948;2023-03-19T04:37:29;91.88;;;44.17;;
79139;SDS011;68546;59.142;37.948;2023-03-19T04:39:56;92.20;;;43.63;;
79139;SDS011;68546;59.142;37.948;2023-03-19T04:42:23;88.70;;;42.92;;
79139;SDS011;68546;59.142;37.948;2023-03-19T04:45:15;91.97;;;43.85;;
79139;SDS011;68546;59.142;37.948;2023-03-19T04:47:43;90.53;;;43.47;;
79139;SDS011;68546;59.142;37.948;2023-03-19T04:50:10;86.65;;;42.47;;
79139;SDS011;68546;59.142;37.948;2023-03-19T04:52:38;82.18;;;41.25;;
79139;SDS011;68546;59.142;37.948;2023-03-19T04:55:05;82.47;;;41.33;;
79139;SDS011;68546;59.142;37.948;2023-03-19T04:57:43;80.25;;;41.05;;
79139;SDS011;68546;59.142;37.948;2023-03-19T05:00:10;75.28;;;39.63;;
79139;SDS011;68546;59.142;37.948;2023-03-19T05:02:41;72.13;;;38.35;;
79139;SDS011;68546;59.142;37.948;2023-03-19T05:05:08;70.63;;;38.72;;
79139;SDS011;68546;59.142;37.948;2023-03-19T05:07:39;65.10;;;36.95;;
79139;SDS011;68546;59.142;37.948;2023-03-19T05:10:08;60.25;;;35.28;;
79139;SDS011;68546;59.142;37.948;2023-03-19T05:12:35;58.33;;;34.87;;
79139;SDS011;68546;59.142;37.948;2023-03-19T05:15:04;51.83;;;32.50;;
79139;SDS011;68546;59.142;37.948;2023-03-19T05:17:49;51.45;;;32.63;;
79139;SDS011;68546;59.142;37.948;2023-03-19T05:20:26;47.53;;;30.90;;
79139;SDS011;68546;59.142;37.948;2023-03-19T05:23:02;44.65;;;28.77;;
79139;SDS011;68546;59.142;37.948;2023-03-19T05:25:48;38.45;;;27.10;;
79139;SDS011;68546;59.142;37.948;2023-03-19T05:28:21;33.50;;;24.40;;
79139;SDS011;68546;59.142;37.948;2023-03-19T05:30:48;29.65;;;22.35;;
79139;SDS011;68546;59.142;37.948;2023-03-19T05:33:29;27.90;;;21.13;;
79139;SDS011;68546;59.142;37.948;2023-03-19T05:35:57;22.20;;;17.63;;
79139;SDS011;68546;59.142;37.948;2023-03-19T05:38:32;20.73;;;16.63;;
79139;SDS011;68546;59.142;37.948;2023-03-19T05:41:04;18.33;;;14.57;;
79139;SDS011;68546;59.142;37.948;2023-03-19T05:43:44;16.25;;;13.10;;
79139;SDS011;68546;59.142;37.948;2023-03-19T05:46:20;15.33;;;12.80;;
79139;SDS011;68546;59.142;37.948;2023-03-19T05:48:47;15.30;;;11.75;;
79139;SDS011;68546;59.142;37.948;2023-03-19T05:51:14;10.70;;;9.02;;
79139;SDS011;68546;59.142;37.948;2023-03-19T05:53:43;11.95;;;9.57;;
79139;SDS011;68546;59.142;37.948;2023-03-19T05:56:32;12.63;;;9.93;;
79139;SDS011;68546;59.142;37.948;2023-03-19T05:59:33;12.50;;;10.27;;
79139;SDS011;68546;59.142;37.948;2023-03-19T06:02:32;10.93;;;9.18;;
79139;SDS011;68546;59.142;37.948;2023-03-19T06:05:16;10.20;;;8.50;;
79139;SDS011;68546;59.142;37.948;2023-03-19T06:07:43;8.30;;;6.10;;
79139;SDS011;68546;59.142;37.948;2023-03-19T06:10:18;6.82;;;5.03;;
79139;SDS011;68546;59.142;37.948;2023-03-19T06:12:47;7.07;;;4.33;;
79139;SDS011;68546;59.142;37.948;2023-03-19T06:15:49;5.93;;;4.05;;
79139;SDS011;68546;59.142;37.948;2023-03-19T06:18:22;6.28;;;3.22;;
79139;SDS011;68546;59.142;37.948;2023-03-19T06:20:49;4.35;;;1.95;;
79139;SDS011;68546;59.142;37.948;2023-03-19T06:23:17;6.50;;;2.40;;
79139;SDS011;68546;59.142;37.948;2023-03-19T06:25:44;4.97;;;1.85;;
79139;SDS011;68546;59.142;37.948;2023-03-19T06:28:11;3.72;;;1.40;;
79139;SDS011;68546;59.142;37.948;2023-03-19T06:30:41;2.97;;;1.10;;
79139;SDS011;68546;59.142;37.948;2023-03-19T06:33:43;4.78;;;1.52;;
79139;SDS011;68546;59.142;37.948;2023-03-19T06:36:09;5.03;;;1.65;;
79139;SDS011;68546;59.142;37.948;2023-03-19T06:38:36;4.60;;;1.53;;
79139;SDS011;68546;59.142;37.948;2023-03-19T06:41:03;3.78;;;1.17;;
79139;SDS011;68546;59.142;37.948;2023-03-19T06:43:29;7.55;;;1.70;;
79139;SDS011;68546;59.142;37.948;2023-03-19T06:45:57;4.20;;;1.55;;
79139;SDS011;68546;59.142;37.948;2023-03-19T06:48:24;6.35;;;2.33;;
79139;SDS011;68546;59.142;37.948;2023-03-19T06:50:50;4.78;;;2.25;;
79139;SDS011;68546;59.142;37.948;2023-03-19T06:53:16;5.00;;;1.65;;
79139;SDS011;68546;59.142;37.948;2023-03-19T06:55:44;7.17;;;1.43;;
79139;SDS011;68546;59.142;37.948;2023-03-19T06:58:12;3.83;;;1.48;;
79139;SDS011;68546;59.142;37.948;2023-03-19T07:00:38;6.75;;;1.95;;
79139;SDS011;68546;59.142;37.948;2023-03-19T07:03:05;5.07;;;1.73;;
79139;SDS011;68546;59.142;37.948;2023-03-19T07:05:32;4.80;;;1.60;;
79139;SDS011;68546;59.142;37.948;2023-03-19T07:07:59;7.45;;;2.45;;
79139;SDS011;68546;59.142;37.948;2023-03-19T07:10:26;4.35;;;1.75;;
79139;SDS011;68546;59.142;37.948;2023-03-19T07:12:52;4.37;;;1.53;;
79139;SDS011;68546;59.142;37.948;2023-03-19T07:15:19;5.68;;;1.73;;
79139;SDS011;68546;59.142;37.948;2023-03-19T07:17:46;6.45;;;2.50;;
79139;SDS011;68546;59.142;37.948;2023-03-19T07:20:13;4.97;;;1.87;;
79139;SDS011;68546;59.142;37.948;2023-03-19T07:22:40;3.92;;;1.55;;
79139;SDS011;68546;59.142;37.948;2023-03-19T07:25:07;4.18;;;1.60;;
79139;SDS011;68546;59.142;37.948;2023-03-19T07:27:34;4.28;;;1.52;;
79139;SDS011;68546;59.142;37.948;2023-03-19T07:30:00;5.22;;;1.65;;
79139;SDS011;68546;59.142;37.948;2023-03-19T07:32:27;4.78;;;1.70;;
79139;SDS011;68546;59.142;37.948;2023-03-19T07:34:53;4.38;;;1.48;;
79139;SDS011;68546;59.142;37.948;2023-03-19T07:37:20;4.77;;;1.73;;
79139;SDS011;68546;59.142;37.948;2023-03-19T07:39:46;4.75;;;1.60;;
79139;SDS011;68546;59.142;37.948;2023-03-19T07:42:13;9.52;;;1.80;;
79139;SDS011;68546;59.142;37.948;2023-03-19T07:44:40;5.83;;;2.03;;
79139;SDS011;68546;59.142;37.948;2023-03-19T07:47:07;5.53;;;2.03;;
79139;SDS011;68546;59.142;37.948;2023-03-19T07:49:33;5.25;;;1.65;;
79139;SDS011;68546;59.142;37.948;2023-03-19T07:52:00;5.50;;;1.88;;
79139;SDS011;68546;59.142;37.948;2023-03-19T07:54:26;5.15;;;1.67;;
79139;SDS011;68546;59.142;37.948;2023-03-19T07:56:53;4.85;;;1.85;;
79139;SDS011;68546;59.142;37.948;2023-03-19T07:59:19;4.47;;;1.52;;
79139;SDS011;68546;59.142;37.948;2023-03-19T08:01:45;3.57;;;1.23;;
79139;SDS011;68546;59.142;37.948;2023-03-19T08:04:12;5.57;;;1.90;;
79139;SDS011;68546;59.142;37.948;2023-03-19T08:06:38;3.80;;;1.10;;
79139;SDS011;68546;59.142;37.948;2023-03-19T08:09:06;6.30;;;1.80;;
79139;SDS011;68546;59.142;37.948;2023-03-19T08:11:32;4.93;;;1.65;;
79139;SDS011;68546;59.142;37.948;2023-03-19T08:13:59;4.85;;;1.83;;
79139;SDS011;68546;59.142;37.948;2023-03-19T08:16:26;8.07;;;2.15;;
79139;SDS011;68546;59.142;37.948;2023-03-19T08:18:54;6.95;;;1.55;;
79139;SDS011;68546;59.142;37.948;2023-03-19T08:21:21;5.60;;;1.60;;
79139;SDS011;68546;59.142;37.948;2023-03-19T08:23:48;5.20;;;1.88;;
79139;SDS011;68546;59.142;37.948;2023-03-19T08:26:16;6.57;;;2.10;;
79139;SDS011;68546;59.142;37.948;2023-03-19T08:28:43;5.50;;;1.92;;
79139;SDS011;68546;59.142;37.948;2023-03-19T08:31:10;4.85;;;1.77;;
79139;SDS011;68546;59.142;37.948;2023-03-19T08:33:38;7.05;;;2.17;;
79139;SDS011;68546;59.142;37.948;2023-03-19T08:36:09;6.85;;;2.17;;
79139;SDS011;68546;59.142;37.948;2023-03-19T08:38:39;4.95;;;1.60;;
79139;SDS011;68546;59.142;37.948;2023-03-19T08:41:07;4.40;;;1.30;;
79139;SDS011;68546;59.142;37.948;2023-03-19T08:43:34;5.43;;;1.50;;
79139;SDS011;68546;59.142;37.948;2023-03-19T08:46:02;4.75;;;1.60;;
79139;SDS011;68546;59.142;37.948;2023-03-19T08:48:29;5.55;;;1.55;;
79139;SDS011;68546;59.142;37.948;2023-03-19T08:50:58;6.35;;;1.75;;
79139;SDS011;68546;59.142;37.948;2023-03-19T08:53:27;4.75;;;1.52;;
79139;SDS011;68546;59.142;37.948;2023-03-19T08:55:59;4.68;;;1.33;;
79139;SDS011;68546;59.142;37.948;2023-03-19T08:58:27;4.45;;;1.40;;
79139;SDS011;68546;59.142;37.948;2023-03-19T09:01:01;5.97;;;1.83;;
79139;SDS011;68546;59.142;37.948;2023-03-19T09:03:29;4.65;;;1.73;;
79139;SDS011;68546;59.142;37.948;2023-03-19T09:05:59;4.95;;;1.60;;
79139;SDS011;68546;59.142;37.948;2023-03-19T09:08:29;6.70;;;1.90;;
79139;SDS011;68546;59.142;37.948;2023-03-19T09:10:56;7.25;;;1.75;;
79139;SDS011;68546;59.142;37.948;2023-03-19T09:13:23;5.40;;;1.92;;
79139;SDS011;68546;59.142;37.948;2023-03-19T09:15:50;5.18;;;1.42;;
79139;SDS011;68546;59.142;37.948;2023-03-19T09:18:17;6.07;;;1.70;;
79139;SDS011;68546;59.142;37.948;2023-03-19T09:20:46;5.45;;;1.73;;
79139;SDS011;68546;59.142;37.948;2023-03-19T09:23:14;4.78;;;1.50;;
79139;SDS011;68546;59.142;37.948;2023-03-19T09:25:40;4.47;;;1.52;;
79139;SDS011;68546;59.142;37.948;2023-03-19T09:28:06;6.18;;;1.63;;
79139;SDS011;68546;59.142;37.948;2023-03-19T09:30:35;5.37;;;1.50;;
79139;SDS011;68546;59.142;37.948;2023-03-19T09:33:02;7.00;;;2.40;;
79139;SDS011;68546;59.142;37.948;2023-03-19T09:35:29;8.30;;;3.03;;
79139;SDS011;68546;59.142;37.948;2023-03-19T09:37:57;9.40;;;3.42;;
79139;SDS011;68546;59.142;37.948;2023-03-19T09:40:46;11.48;;;3.28;;
79139;SDS011;68546;59.142;37.948;2023-03-19T09:45:56;7.47;;;2.80;;
79139;SDS011;68546;59.142;37.948;2023-03-19T09:48:32;9.15;;;3.00;;
79139;SDS011;68546;59.142;37.948;2023-03-19T09:51:04;7.63;;;2.25;;
79139;SDS011;68546;59.142;37.948;2023-03-19T09:53:39;5.40;;;1.73;;
79139;SDS011;68546;59.142;37.948;2023-03-19T09:56:13;4.68;;;1.67;;
79139;SDS011;68546;59.142;37.948;2023-03-19T09:58:41;7.82;;;2.40;;
79139;SDS011;68546;59.142;37.948;2023-03-19T10:01:15;5.45;;;1.58;;
79139;SDS011;68546;59.142;37.948;2023-03-19T10:03:55;4.93;;;1.60;;
79139;SDS011;68546;59.142;37.948;2023-03-19T10:06:52;7.17;;;1.97;;
79139;SDS011;68546;59.142;37.948;2023-03-19T10:09:39;6.07;;;2.03;;
79139;SDS011;68546;59.142;37.948;2023-03-19T10:15:09;5.78;;;1.92;;
79139;SDS011;68546;59.142;37.948;2023-03-19T10:25:57;5.47;;;1.60;;
79139;SDS011;68546;59.142;37.948;2023-03-19T10:28:25;6.00;;;2.10;;
79139;SDS011;68546;59.142;37.948;2023-03-19T10:36:14;6.10;;;2.28;;
79139;SDS011;68546;59.142;37.948;2023-03-19T10:38:44;4.90;;;1.70;;
79139;SDS011;68546;59.142;37.948;2023-03-19T10:43:53;4.90;;;1.60;;
79139;SDS011;68546;59.142;37.948;2023-03-19T10:46:25;10.43;;;1.73;;
79139;SDS011;68546;59.142;37.948;2023-03-19T10:48:51;5.72;;;1.77;;
79139;SDS011;68546;59.142;37.948;2023-03-19T10:51:21;4.45;;;1.48;;
79139;SDS011;68546;59.142;37.948;2023-03-19T10:53:52;4.65;;;1.80;;
79139;SDS011;68546;59.142;37.948;2023-03-19T10:56:22;6.07;;;1.50;;
79139;SDS011;68546;59.142;37.948;2023-03-19T11:01:32;4.47;;;1.52;;
79139;SDS011;68546;59.142;37.948;2023-03-19T11:04:01;5.65;;;1.80;;
79139;SDS011;68546;59.142;37.948;2023-03-19T11:06:36;5.78;;;1.75;;
79139;SDS011;68546;59.142;37.948;2023-03-19T11:11:34;5.05;;;1.75;;
79139;SDS011;68546;59.142;37.948;2023-03-19T11:14:07;6.35;;;2.00;;
79139;SDS011;68546;59.142;37.948;2023-03-19T11:16:46;5.88;;;1.77;;
79139;SDS011;68546;59.142;37.948;2023-03-19T11:19:18;5.38;;;2.03;;
79139;SDS011;68546;59.142;37.948;2023-03-19T11:22:20;5.07;;;1.70;;
79139;SDS011;68546;59.142;37.948;2023-03-19T11:28:11;5.78;;;1.73;;
79139;SDS011;68546;59.142;37.948;2023-03-19T11:41:55;4.25;;;1.95;;
79139;SDS011;68546;59.142;37.948;2023-03-19T11:44:59;5.55;;;1.65;;
79139;SDS011;68546;59.142;37.948;2023-03-19T11:53:27;4.93;;;1.88;;
79139;SDS011;68546;59.142;37.948;2023-03-19T12:03:58;5.40;;;1.70;;
79139;SDS011;68546;59.142;37.948;2023-03-19T12:09:28;7.63;;;1.63;;
79139;SDS011;68546;59.142;37.948;2023-03-19T12:12:29;5.85;;;1.77;;
79139;SDS011;68546;59.142;37.948;2023-03-19T12:15:19;4.35;;;1.48;;
79139;SDS011;68546;59.142;37.948;2023-03-19T12:23:16;4.80;;;1.60;;
79139;SDS011;68546;59.142;37.948;2023-03-19T12:26:07;4.65;;;1.40;;
79139;SDS011;68546;59.142;37.948;2023-03-19T12:28:50;7.75;;;1.95;;
79139;SDS011;68546;59.142;37.948;2023-03-19T12:39:52;4.80;;;1.58;;
79139;SDS011;68546;59.142;37.948;2023-03-19T12:42:42;4.85;;;1.70;;
79139;SDS011;68546;59.142;37.948;2023-03-19T12:45:18;4.67;;;1.80;;
79139;SDS011;68546;59.142;37.948;2023-03-19T12:48:12;5.32;;;1.80;;
79139;SDS011;68546;59.142;37.948;2023-03-19T12:50:55;6.00;;;1.85;;
79139;SDS011;68546;59.142;37.948;2023-03-19T12:53:30;5.65;;;1.90;;
79139;SDS011;68546;59.142;37.948;2023-03-19T13:04:34;6.28;;;1.80;;
79139;SDS011;68546;59.142;37.948;2023-03-19T13:07:07;5.85;;;2.25;;
79139;SDS011;68546;59.142;37.948;2023-03-19T13:09:44;6.22;;;1.98;;
79139;SDS011;68546;59.142;37.948;2023-03-19T13:14:58;5.18;;;1.67;;
79139;SDS011;68546;59.142;37.948;2023-03-19T13:22:58;5.00;;;1.52;;
79139;SDS011;68546;59.142;37.948;2023-03-19T13:25:36;4.80;;;1.63;;
79139;SDS011;68546;59.142;37.948;2023-03-19T13:28:08;4.72;;;1.67;;
79139;SDS011;68546;59.142;37.948;2023-03-19T13:30:36;4.75;;;1.45;;
79139;SDS011;68546;59.142;37.948;2023-03-19T13:33:16;5.40;;;1.38;;
79139;SDS011;68546;59.142;37.948;2023-03-19T13:35:50;4.63;;;1.33;;
79139;SDS011;68546;59.142;37.948;2023-03-19T13:40:46;4.57;;;1.50;;
79139;SDS011;68546;59.142;37.948;2023-03-19T13:46:09;5.20;;;1.52;;
79139;SDS011;68546;59.142;37.948;2023-03-19T13:51:55;5.53;;;2.03;;
79139;SDS011;68546;59.142;37.948;2023-03-19T13:54:31;7.38;;;1.92;;
79139;SDS011;68546;59.142;37.948;2023-03-19T13:59:38;5.25;;;1.50;;
79139;SDS011;68546;59.142;37.948;2023-03-19T14:04:48;5.63;;;1.63;;
79139;SDS011;68546;59.142;37.948;2023-03-19T14:07:18;4.45;;;1.40;;
79139;SDS011;68546;59.142;37.948;2023-03-19T14:09:49;4.38;;;1.52;;
79139;SDS011;68546;59.142;37.948;2023-03-19T14:12:36;4.97;;;1.83;;
79139;SDS011;68546;59.142;37.948;2023-03-19T14:17:43;6.85;;;2.53;;
79139;SDS011;68546;59.142;37.948;2023-03-19T14:34:19;4.40;;;1.55;;
79139;SDS011;68546;59.142;37.948;2023-03-19T14:40:35;6.18;;;1.70;;
79139;SDS011;68546;59.142;37.948;2023-03-19T14:53:38;5.03;;;1.60;;
79139;SDS011;68546;59.142;37.948;2023-03-19T14:58:50;5.53;;;1.80;;
79139;SDS011;68546;59.142;37.948;2023-03-19T15:01:21;5.53;;;1.85;;
79139;SDS011;68546;59.142;37.948;2023-03-19T15:04:10;4.43;;;1.45;;
79139;SDS011;68546;59.142;37.948;2023-03-19T15:06:39;5.72;;;1.90;;
79139;SDS011;68546;59.142;37.948;2023-03-19T15:09:11;5.67;;;1.80;;
79139;SDS011;68546;59.142;37.948;2023-03-19T15:11:56;3.90;;;1.40;;
79139;SDS011;68546;59.142;37.948;2023-03-19T15:17:03;5.43;;;1.55;;
79139;SDS011;68546;59.142;37.948;2023-03-19T15:19:31;4.90;;;1.50;;
79139;SDS011;68546;59.142;37.948;2023-03-19T15:24:41;5.63;;;1.60;;
79139;SDS011;68546;59.142;37.948;2023-03-19T15:27:42;6.07;;;1.65;;
79139;SDS011;68546;59.142;37.948;2023-03-19T15:30:02;5.40;;;1.83;;
79139;SDS011;68546;59.142;37.948;2023-03-19T15:32:43;4.63;;;1.48;;
79139;SDS011;68546;59.142;37.948;2023-03-19T15:35:09;8.50;;;2.15;;
79139;SDS011;68546;59.142;37.948;2023-03-19T15:37:37;4.28;;;1.40;;
79139;SDS011;68546;59.142;37.948;2023-03-19T15:40:08;4.77;;;1.53;;
79139;SDS011;68546;59.142;37.948;2023-03-19T15:42:37;4.22;;;1.48;;
79139;SDS011;68546;59.142;37.948;2023-03-19T15:45:08;4.63;;;1.63;;
79139;SDS011;68546;59.142;37.948;2023-03-19T15:47:38;4.15;;;1.33;;
79139;SDS011;68546;59.142;37.948;2023-03-19T15:50:15;4.97;;;1.73;;
79139;SDS011;68546;59.142;37.948;2023-03-19T15:52:45;4.85;;;1.40;;
79139;SDS011;68546;59.142;37.948;2023-03-19T15:55:18;3.67;;;1.30;;
79139;SDS011;68546;59.142;37.948;2023-03-19T15:57:48;5.18;;;1.65;;
79139;SDS011;68546;59.142;37.948;2023-03-19T16:00:14;3.97;;;1.27;;
79139;SDS011;68546;59.142;37.948;2023-03-19T16:02:42;5.30;;;1.52;;
79139;SDS011;68546;59.142;37.948;2023-03-19T16:05:31;8.35;;;1.52;;
79139;SDS011;68546;59.142;37.948;2023-03-19T16:07:59;5.72;;;1.90;;
79139;SDS011;68546;59.142;37.948;2023-03-19T16:11:10;4.70;;;1.40;;
79139;SDS011;68546;59.142;37.948;2023-03-19T16:13:41;3.28;;;1.17;;
79139;SDS011;68546;59.142;37.948;2023-03-19T16:16:19;4.40;;;1.30;;
79139;SDS011;68546;59.142;37.948;2023-03-19T16:18:51;30.03;;;12.40;;
79139;SDS011;68546;59.142;37.948;2023-03-19T16:23:57;4.75;;;1.27;;
79139;SDS011;68546;59.142;37.948;2023-03-19T16:31:30;4.25;;;1.42;;
79139;SDS011;68546;59.142;37.948;2023-03-19T16:34:13;4.07;;;1.42;;
79139;SDS011;68546;59.142;37.948;2023-03-19T16:36:48;4.00;;;1.30;;
79139;SDS011;68546;59.142;37.948;2023-03-19T16:44:41;4.05;;;1.40;;
79139;SDS011;68546;59.142;37.948;2023-03-19T16:47:09;3.30;;;1.27;;
79139;SDS011;68546;59.142;37.948;2023-03-19T16:49:37;5.03;;;1.35;;
79139;SDS011;68546;59.142;37.948;2023-03-19T16:52:03;5.15;;;1.52;;
79139;SDS011;68546;59.142;37.948;2023-03-19T16:54:35;4.45;;;1.55;;
79139;SDS011;68546;59.142;37.948;2023-03-19T16:57:02;4.27;;;1.53;;
79139;SDS011;68546;59.142;37.948;2023-03-19T16:59:29;5.72;;;1.25;;
79139;SDS011;68546;59.142;37.948;2023-03-19T17:01:56;7.53;;;1.52;;
79139;SDS011;68546;59.142;37.948;2023-03-19T17:04:22;4.90;;;1.42;;
79139;SDS011;68546;59.142;37.948;2023-03-19T17:06:49;5.68;;;1.33;;
79139;SDS011;68546;59.142;37.948;2023-03-19T17:09:15;3.75;;;1.23;;
79139;SDS011;68546;59.142;37.948;2023-03-19T17:11:42;6.20;;;1.80;;
79139;SDS011;68546;59.142;37.948;2023-03-19T17:14:19;5.37;;;2.00;;
79139;SDS011;68546;59.142;37.948;2023-03-19T17:16:46;5.18;;;1.45;;
79139;SDS011;68546;59.142;37.948;2023-03-19T17:19:22;4.05;;;1.40;;
79139;SDS011;68546;59.142;37.948;2023-03-19T17:21:55;4.35;;;1.27;;
79139;SDS011;68546;59.142;37.948;2023-03-19T17:24:33;4.13;;;1.23;;